sensor_id;sensor_type;location;lat;lon;timestamp;pressure;altitude;pressure_sealevel;temperature;humidity
62402;BME280;48440;51.224;22.506;2023-01-16T00:01:04;98349.34;;;3.79;85.67
62402;BME280;48440;51.224;22.506;2023-01-16T00:03:30;98348.75;;;3.77;85.71
62402;BME280;48440;51.224;22.506;2023-01-16T00:05:55;98352.00;;;3.79;85.83
62402;BME280;48440;51.224;22.506;2023-01-16T00:08:21;98350.16;;;3.80;85.97
62402;BME280;48440;51.224;22.506;2023-01-16T00:10:46;98345.59;;;3.80;85.71
62402;BME280;48440;51.224;22.506;2023-01-16T00:13:13;98335.91;;;3.79;85.21
62402;BME280;48440;51.224;22.506;2023-01-16T00:15:44;98327.75;;;3.74;85.61
62402;BME280;48440;51.224;22.506;2023-01-16T00:18:10;98324.81;;;3.75;85.55
62402;BME280;48440;51.224;22.506;2023-01-16T00:20:35;98330.66;;;3.72;85.76
62402;BME280;48440;51.224;22.506;2023-01-16T00:23:01;98316.66;;;3.70;85.85
62402;BME280;48440;51.224;22.506;2023-01-16T00:25:27;98309.66;;;3.69;85.89
62402;BME280;48440;51.224;22.506;2023-01-16T00:27:52;98306.63;;;3.66;85.89
62402;BME280;48440;51.224;22.506;2023-01-16T00:30:17;98306.28;;;3.62;85.76
62402;BME280;48440;51.224;22.506;2023-01-16T00:32:44;98306.28;;;3.62;85.49
62402;BME280;48440;51.224;22.506;2023-01-16T00:35:10;98302.91;;;3.55;85.73
62402;BME280;48440;51.224;22.506;2023-01-16T00:37:35;98308.28;;;3.55;86.53
62402;BME280;48440;51.224;22.506;2023-01-16T00:40:01;98305.22;;;3.52;86.42
62402;BME280;48440;51.224;22.506;2023-01-16T00:42:26;98305.81;;;3.54;86.20
62402;BME280;48440;51.224;22.506;2023-01-16T00:44:51;98314.09;;;3.52;85.94
62402;BME280;48440;51.224;22.506;2023-01-16T00:47:17;98308.16;;;3.50;86.37
62402;BME280;48440;51.224;22.506;2023-01-16T00:49:42;98310.13;;;3.43;86.48
62402;BME280;48440;51.224;22.506;2023-01-16T00:52:08;98306.63;;;3.42;87.17
62402;BME280;48440;51.224;22.506;2023-01-16T00:54:33;98316.53;;;3.42;87.02
62402;BME280;48440;51.224;22.506;2023-01-16T00:56:58;98306.84;;;3.41;87.37
62402;BME280;48440;51.224;22.506;2023-01-16T00:59:24;98304.16;;;3.41;86.83
62402;BME280;48440;51.224;22.506;2023-01-16T01:01:49;98308.50;;;3.42;86.91
62402;BME280;48440;51.224;22.506;2023-01-16T01:04:15;98301.84;;;3.45;87.13
62402;BME280;48440;51.224;22.506;2023-01-16T01:06:41;98318.16;;;3.43;86.62
62402;BME280;48440;51.224;22.506;2023-01-16T01:09:07;98319.44;;;3.40;87.11
62402;BME280;48440;51.224;22.506;2023-01-16T01:11:33;98318.41;;;3.41;86.96
62402;BME280;48440;51.224;22.506;2023-01-16T01:13:58;98318.03;;;3.38;86.99
62402;BME280;48440;51.224;22.506;2023-01-16T01:16:24;98317.00;;;3.39;86.89
62402;BME280;48440;51.224;22.506;2023-01-16T01:18:50;98321.31;;;3.40;87.43
62402;BME280;48440;51.224;22.506;2023-01-16T01:21:15;98322.94;;;3.41;87.33
62402;BME280;48440;51.224;22.506;2023-01-16T01:23:41;98320.50;;;3.39;86.87
62402;BME280;48440;51.224;22.506;2023-01-16T01:26:16;98314.09;;;3.40;87.34
62402;BME280;48440;51.224;22.506;2023-01-16T01:28:42;98315.94;;;3.40;86.82
62402;BME280;48440;51.224;22.506;2023-01-16T01:31:10;98306.63;;;3.42;87.07
62402;BME280;48440;51.224;22.506;2023-01-16T01:33:36;98305.56;;;3.44;87.23
62402;BME280;48440;51.224;22.506;2023-01-16T01:36:03;98291.13;;;3.45;86.86
62402;BME280;48440;51.224;22.506;2023-01-16T01:38:29;98304.16;;;3.41;86.98
62402;BME280;48440;51.224;22.506;2023-01-16T01:40:55;98304.75;;;3.43;86.46
62402;BME280;48440;51.224;22.506;2023-01-16T01:43:20;98309.31;;;3.42;86.72
62402;BME280;48440;51.224;22.506;2023-01-16T01:45:50;98300.44;;;3.42;86.41
62402;BME280;48440;51.224;22.506;2023-01-16T01:51:01;98296.13;;;3.41;86.79
62402;BME280;48440;51.224;22.506;2023-01-16T01:53:39;98291.81;;;3.40;86.20
62402;BME280;48440;51.224;22.506;2023-01-16T01:56:15;98292.03;;;3.38;86.33
62402;BME280;48440;51.224;22.506;2023-01-16T01:58:44;98292.84;;;3.39;86.53
62402;BME280;48440;51.224;22.506;2023-01-16T02:01:13;98288.06;;;3.41;86.94
62402;BME280;48440;51.224;22.506;2023-01-16T02:03:42;98290.53;;;3.42;86.50
62402;BME280;48440;51.224;22.506;2023-01-16T02:06:19;98294.03;;;3.43;86.42
62402;BME280;48440;51.224;22.506;2023-01-16T02:08:46;98293.22;;;3.42;86.00
62402;BME280;48440;51.224;22.506;2023-01-16T02:11:18;98291.13;;;3.45;85.76
62402;BME280;48440;51.224;22.506;2023-01-16T02:13:55;98281.91;;;3.40;86.43
62402;BME280;48440;51.224;22.506;2023-01-16T02:16:22;98276.75;;;3.39;86.35
62402;BME280;48440;51.224;22.506;2023-01-16T02:19:11;98281.31;;;3.38;86.05
62402;BME280;48440;51.224;22.506;2023-01-16T02:33:06;98272.13;;;3.34;86.76
62402;BME280;48440;51.224;22.506;2023-01-16T02:49:53;98273.53;;;3.37;86.07
62402;BME280;48440;51.224;22.506;2023-01-16T02:52:35;98275.03;;;3.33;85.90
62402;BME280;48440;51.224;22.506;2023-01-16T02:55:16;98272.22;;;3.39;85.82
62402;BME280;48440;51.224;22.506;2023-01-16T02:57:48;98278.63;;;3.38;85.76
62402;BME280;48440;51.224;22.506;2023-01-16T03:00:16;98279.44;;;3.39;85.70
62402;BME280;48440;51.224;22.506;2023-01-16T03:02:43;98285.41;;;3.41;86.09
62402;BME280;48440;51.224;22.506;2023-01-16T03:05:09;98279.22;;;3.40;85.76
62402;BME280;48440;51.224;22.506;2023-01-16T03:19:12;98260.34;;;3.24;84.84
62402;BME280;48440;51.224;22.506;2023-01-16T03:26:56;98256.72;;;3.18;85.67
62402;BME280;48440;51.224;22.506;2023-01-16T03:29:46;98250.75;;;3.16;nan
62402;BME280;48440;51.224;22.506;2023-01-16T03:34:57;98254.03;;;3.18;85.65
62402;BME280;48440;51.224;22.506;2023-01-16T03:37:30;98247.84;;;3.18;85.19
62402;BME280;48440;51.224;22.506;2023-01-16T03:40:01;98241.09;;;3.15;85.55
62402;BME280;48440;51.224;22.506;2023-01-16T03:42:39;98236.09;;;3.07;85.56
62402;BME280;48440;51.224;22.506;2023-01-16T03:48:03;98230.81;;;3.12;85.81
62402;BME280;48440;51.224;22.506;2023-01-16T03:50:32;98227.69;;;3.15;85.81
62402;BME280;48440;51.224;22.506;2023-01-16T03:53:06;98232.22;;;3.15;85.52
62402;BME280;48440;51.224;22.506;2023-01-16T03:55:50;98239.56;;;3.19;86.07
62402;BME280;48440;51.224;22.506;2023-01-16T03:58:35;98242.03;;;3.21;85.58
62402;BME280;48440;51.224;22.506;2023-01-16T04:04:19;98242.63;;;3.23;85.44
62402;BME280;48440;51.224;22.506;2023-01-16T04:09:29;98238.28;;;3.22;85.82
62402;BME280;48440;51.224;22.506;2023-01-16T04:11:59;98231.53;;;3.19;85.95
62402;BME280;48440;51.224;22.506;2023-01-16T04:14:26;98232.34;;;3.20;86.13
62402;BME280;48440;51.224;22.506;2023-01-16T04:16:52;98225.94;;;3.21;86.24
62402;BME280;48440;51.224;22.506;2023-01-16T04:19:26;98231.53;;;3.19;86.18
62402;BME280;48440;51.224;22.506;2023-01-16T04:21:53;98223.03;;;3.22;86.01
62402;BME280;48440;51.224;22.506;2023-01-16T04:24:19;98221.16;;;3.23;86.12
62402;BME280;48440;51.224;22.506;2023-01-16T04:26:45;98228.38;;;3.22;86.26
62402;BME280;48440;51.224;22.506;2023-01-16T04:29:11;98221.63;;;3.20;86.32
62402;BME280;48440;51.224;22.506;2023-01-16T04:31:36;98228.63;;;3.21;86.54
62402;BME280;48440;51.224;22.506;2023-01-16T04:34:02;98232.94;;;3.22;86.18
62402;BME280;48440;51.224;22.506;2023-01-16T04:36:27;98236.66;;;3.21;86.31
62402;BME280;48440;51.224;22.506;2023-01-16T04:38:54;98239.69;;;3.24;86.15
62402;BME280;48440;51.224;22.506;2023-01-16T04:41:19;98235.25;;;3.18;85.77
62402;BME280;48440;51.224;22.506;2023-01-16T04:44:06;98237.47;;;3.21;86.28
62402;BME280;48440;51.224;22.506;2023-01-16T04:46:32;98243.66;;;3.22;86.17
62402;BME280;48440;51.224;22.506;2023-01-16T04:48:57;98247.75;;;3.24;86.40
62402;BME280;48440;51.224;22.506;2023-01-16T04:51:23;98244.25;;;3.24;86.30
62402;BME280;48440;51.224;22.506;2023-01-16T04:53:50;98244.59;;;3.27;86.10
62402;BME280;48440;51.224;22.506;2023-01-16T04:56:15;98243.78;;;3.27;86.03
62402;BME280;48440;51.224;22.506;2023-01-16T04:58:41;98240.50;;;3.25;85.81
62402;BME280;48440;51.224;22.506;2023-01-16T05:01:07;98240.06;;;3.28;85.63
62402;BME280;48440;51.224;22.506;2023-01-16T05:03:32;98230.38;;;3.27;85.54
62402;BME280;48440;51.224;22.506;2023-01-16T05:05:58;98236.56;;;3.27;85.50
62402;BME280;48440;51.224;22.506;2023-01-16T05:08:23;98223.03;;;3.22;85.70
62402;BME280;48440;51.224;22.506;2023-01-16T05:10:53;98226.28;;;3.24;85.70
62402;BME280;48440;51.224;22.506;2023-01-16T05:13:19;98231.88;;;3.23;85.17
62402;BME280;48440;51.224;22.506;2023-01-16T05:15:45;98223.25;;;3.21;85.55
62402;BME280;48440;51.224;22.506;2023-01-16T05:18:11;98223.25;;;3.21;85.29
62402;BME280;48440;51.224;22.506;2023-01-16T05:20:38;98228.84;;;3.19;85.15
62402;BME280;48440;51.224;22.506;2023-01-16T05:23:03;98224.78;;;3.17;85.02
62402;BME280;48440;51.224;22.506;2023-01-16T05:25:29;98236.53;;;3.16;85.15
62402;BME280;48440;51.224;22.506;2023-01-16T05:27:54;98233.63;;;3.17;85.15
62402;BME280;48440;51.224;22.506;2023-01-16T05:30:20;98236.66;;;3.21;nan
62402;BME280;48440;51.224;22.506;2023-01-16T05:32:46;98241.22;;;3.20;85.17
62402;BME280;48440;51.224;22.506;2023-01-16T05:35:12;98238.53;;;3.20;85.10
62402;BME280;48440;51.224;22.506;2023-01-16T05:37:38;98243.44;;;3.23;84.67
62402;BME280;48440;51.224;22.506;2023-01-16T05:40:04;98243.31;;;3.18;84.72
62402;BME280;48440;51.224;22.506;2023-01-16T05:42:29;98246.00;;;3.18;84.71
62402;BME280;48440;51.224;22.506;2023-01-16T05:44:55;98248.06;;;3.16;84.87
62402;BME280;48440;51.224;22.506;2023-01-16T05:47:21;98250.75;;;3.16;84.60
62402;BME280;48440;51.224;22.506;2023-01-16T05:49:47;98243.44;;;3.12;84.67
62402;BME280;48440;51.224;22.506;2023-01-16T05:52:13;98247.72;;;3.13;84.73
62402;BME280;48440;51.224;22.506;2023-01-16T05:54:38;98255.66;;;3.08;84.74
62402;BME280;48440;51.224;22.506;2023-01-16T05:57:04;98248.91;;;3.05;84.31
62402;BME280;48440;51.224;22.506;2023-01-16T05:59:30;98250.31;;;3.08;84.58
62402;BME280;48440;51.224;22.506;2023-01-16T06:01:55;98249.25;;;3.09;84.29
62402;BME280;48440;51.224;22.506;2023-01-16T06:04:22;98246.59;;;3.09;84.60
62402;BME280;48440;51.224;22.506;2023-01-16T06:06:48;98245.75;;;3.08;84.32
62402;BME280;48440;51.224;22.506;2023-01-16T06:09:14;98233.88;;;3.04;84.86
62402;BME280;48440;51.224;22.506;2023-01-16T06:11:40;98235.16;;;3.01;84.73
62402;BME280;48440;51.224;22.506;2023-01-16T06:14:05;98229.19;;;2.99;84.44
62402;BME280;48440;51.224;22.506;2023-01-16T06:16:31;98228.16;;;3.00;84.28
62402;BME280;48440;51.224;22.506;2023-01-16T06:18:57;98236.78;;;3.02;84.50
62402;BME280;48440;51.224;22.506;2023-01-16T06:21:23;98224.78;;;3.05;84.44
62402;BME280;48440;51.224;22.506;2023-01-16T06:23:48;98228.50;;;3.04;84.40
62402;BME280;48440;51.224;22.506;2023-01-16T06:26:14;98228.75;;;3.02;83.76
62402;BME280;48440;51.224;22.506;2023-01-16T06:28:40;98230.38;;;3.03;83.95
62402;BME280;48440;51.224;22.506;2023-01-16T06:31:06;98227.09;;;3.01;84.02
62402;BME280;48440;51.224;22.506;2023-01-16T06:33:32;98218.25;;;3.01;83.99
62402;BME280;48440;51.224;22.506;2023-01-16T06:35:57;98218.13;;;2.96;83.67
62402;BME280;48440;51.224;22.506;2023-01-16T06:38:23;98210.09;;;2.96;83.37
62402;BME280;48440;51.224;22.506;2023-01-16T06:40:48;98212.41;;;2.92;83.52
62402;BME280;48440;51.224;22.506;2023-01-16T06:43:14;98200.88;;;2.92;82.91
62402;BME280;48440;51.224;22.506;2023-01-16T06:45:43;98212.03;;;2.89;83.32
62402;BME280;48440;51.224;22.506;2023-01-16T06:48:10;98204.50;;;2.86;84.15
62402;BME280;48440;51.224;22.506;2023-01-16T06:50:35;98207.72;;;2.88;83.96
62402;BME280;48440;51.224;22.506;2023-01-16T06:53:04;98209.13;;;2.90;83.64
62402;BME280;48440;51.224;22.506;2023-01-16T06:55:30;98201.09;;;2.90;83.19
62402;BME280;48440;51.224;22.506;2023-01-16T06:57:55;98202.16;;;2.89;83.45
62402;BME280;48440;51.224;22.506;2023-01-16T07:00:20;98206.00;;;2.93;83.79
62402;BME280;48440;51.224;22.506;2023-01-16T07:02:53;98200.06;;;2.91;83.22
62402;BME280;48440;51.224;22.506;2023-01-16T07:05:27;98195.50;;;2.92;83.63
62402;BME280;48440;51.224;22.506;2023-01-16T07:07:53;98184.19;;;2.90;83.30
62402;BME280;48440;51.224;22.506;2023-01-16T07:10:20;98182.94;;;2.92;83.65
62402;BME280;48440;51.224;22.506;2023-01-16T07:12:47;98185.25;;;2.89;83.43
62402;BME280;48440;51.224;22.506;2023-01-16T07:15:12;98184.66;;;2.87;83.63
62402;BME280;48440;51.224;22.506;2023-01-16T07:17:57;98190.59;;;2.89;83.86
62402;BME280;48440;51.224;22.506;2023-01-16T07:20:42;98194.09;;;2.78;83.83
62402;BME280;48440;51.224;22.506;2023-01-16T07:23:31;98200.28;;;2.90;84.08
62402;BME280;48440;51.224;22.506;2023-01-16T07:26:01;98207.63;;;2.94;83.98
62402;BME280;48440;51.224;22.506;2023-01-16T07:28:28;98201.44;;;2.94;84.38
62402;BME280;48440;51.224;22.506;2023-01-16T07:30:54;98211.59;;;2.92;83.69
62402;BME280;48440;51.224;22.506;2023-01-16T07:33:20;98212.63;;;2.91;83.13
62402;BME280;48440;51.224;22.506;2023-01-16T07:35:45;98217.63;;;2.87;83.41
62402;BME280;48440;51.224;22.506;2023-01-16T07:38:11;98207.06;;;2.81;83.31
62402;BME280;48440;51.224;22.506;2023-01-16T07:40:36;98198.19;;;2.80;83.58
62402;BME280;48440;51.224;22.506;2023-01-16T07:43:02;98195.38;;;2.75;83.90
62402;BME280;48440;51.224;22.506;2023-01-16T07:45:27;98198.19;;;2.80;83.56
62402;BME280;48440;51.224;22.506;2023-01-16T07:47:53;98198.41;;;2.90;83.87
62402;BME280;48440;51.224;22.506;2023-01-16T07:50:18;98201.69;;;2.81;83.13
62402;BME280;48440;51.224;22.506;2023-01-16T07:52:43;98203.19;;;2.77;83.70
62402;BME280;48440;51.224;22.506;2023-01-16T07:55:11;98198.28;;;2.73;83.26
62402;BME280;48440;51.224;22.506;2023-01-16T07:57:37;98193.75;;;2.74;83.98
62402;BME280;48440;51.224;22.506;2023-01-16T08:00:07;98194.47;;;2.81;84.05
62402;BME280;48440;51.224;22.506;2023-01-16T08:02:33;98192.97;;;2.85;84.00
62402;BME280;48440;51.224;22.506;2023-01-16T08:04:58;98191.19;;;2.91;83.56
62402;BME280;48440;51.224;22.506;2023-01-16T08:07:24;98196.56;;;2.91;82.70
62402;BME280;48440;51.224;22.506;2023-01-16T08:09:49;98187.09;;;2.88;82.66
62402;BME280;48440;51.224;22.506;2023-01-16T08:12:15;98182.81;;;2.87;82.72
62402;BME280;48440;51.224;22.506;2023-01-16T08:14:40;98178.84;;;2.90;82.59
62402;BME280;48440;51.224;22.506;2023-01-16T08:17:06;98181.06;;;2.81;83.19
62402;BME280;48440;51.224;22.506;2023-01-16T08:19:31;98184.56;;;2.82;83.08
62402;BME280;48440;51.224;22.506;2023-01-16T08:21:57;98185.16;;;2.84;82.99
62402;BME280;48440;51.224;22.506;2023-01-16T08:24:23;98185.38;;;2.82;83.09
62402;BME280;48440;51.224;22.506;2023-01-16T08:26:50;98179.44;;;2.80;83.06
62402;BME280;48440;51.224;22.506;2023-01-16T08:29:16;98191.09;;;2.86;83.19
62402;BME280;48440;51.224;22.506;2023-01-16T08:31:42;98196.56;;;2.91;83.01
62402;BME280;48440;51.224;22.506;2023-01-16T08:34:07;98200.50;;;2.88;82.82
62402;BME280;48440;51.224;22.506;2023-01-16T08:36:33;98190.75;;;2.82;82.68
62402;BME280;48440;51.224;22.506;2023-01-16T08:38:58;98184.66;;;2.87;82.96
62402;BME280;48440;51.224;22.506;2023-01-16T08:41:24;98182.81;;;2.87;82.44
62402;BME280;48440;51.224;22.506;2023-01-16T08:44:09;98181.97;;;2.87;82.56
62402;BME280;48440;51.224;22.506;2023-01-16T08:46:57;98176.16;;;2.90;83.06
62402;BME280;48440;51.224;22.506;2023-01-16T08:49:42;98177.09;;;2.95;82.84
62402;BME280;48440;51.224;22.506;2023-01-16T08:52:26;98175.47;;;3.06;82.38
62402;BME280;48440;51.224;22.506;2023-01-16T08:54:56;98182.56;;;3.12;81.82
62402;BME280;48440;51.224;22.506;2023-01-16T08:57:22;98175.84;;;3.10;81.93
62402;BME280;48440;51.224;22.506;2023-01-16T08:59:47;98177.13;;;3.07;81.53
62402;BME280;48440;51.224;22.506;2023-01-16T09:02:12;98158.59;;;3.05;82.06
62402;BME280;48440;51.224;22.506;2023-01-16T09:04:40;98162.31;;;3.04;82.14
62402;BME280;48440;51.224;22.506;2023-01-16T09:07:05;98154.63;;;3.08;81.76
62402;BME280;48440;51.224;22.506;2023-01-16T09:09:31;98147.47;;;3.14;82.42
62402;BME280;48440;51.224;22.506;2023-01-16T09:11:57;98141.22;;;3.08;82.26
62402;BME280;48440;51.224;22.506;2023-01-16T09:14:41;98144.25;;;3.12;82.26
62402;BME280;48440;51.224;22.506;2023-01-16T09:17:07;98137.50;;;3.09;82.36
62402;BME280;48440;51.224;22.506;2023-01-16T09:19:34;98135.25;;;3.18;82.50
62402;BME280;48440;51.224;22.506;2023-01-16T09:22:00;98124.88;;;3.21;83.03
62402;BME280;48440;51.224;22.506;2023-01-16T09:24:25;98125.34;;;3.18;82.70
62402;BME280;48440;51.224;22.506;2023-01-16T09:26:51;98114.38;;;3.20;83.15
62402;BME280;48440;51.224;22.506;2023-01-16T09:29:16;98097.00;;;3.22;83.20
62402;BME280;48440;51.224;22.506;2023-01-16T09:31:42;98099.97;;;3.09;82.43
62402;BME280;48440;51.224;22.506;2023-01-16T09:34:07;98094.84;;;3.08;83.36
62402;BME280;48440;51.224;22.506;2023-01-16T09:36:33;98093.56;;;3.10;83.88
62402;BME280;48440;51.224;22.506;2023-01-16T09:38:58;98086.19;;;3.17;83.83
62402;BME280;48440;51.224;22.506;2023-01-16T09:41:24;98085.22;;;3.23;83.37
62402;BME280;48440;51.224;22.506;2023-01-16T09:44:11;98079.06;;;3.23;83.27
62402;BME280;48440;51.224;22.506;2023-01-16T09:46:48;98084.53;;;3.28;83.71
62402;BME280;48440;51.224;22.506;2023-01-16T09:49:21;98076.13;;;3.24;82.87
62402;BME280;48440;51.224;22.506;2023-01-16T09:51:58;98072.06;;;3.22;84.00
62402;BME280;48440;51.224;22.506;2023-01-16T09:54:52;98074.38;;;3.30;83.70
62402;BME280;48440;51.224;22.506;2023-01-16T09:57:39;98083.00;;;3.32;83.59
62402;BME280;48440;51.224;22.506;2023-01-16T10:00:26;98070.84;;;3.41;83.54
62402;BME280;48440;51.224;22.506;2023-01-16T10:02:53;98066.38;;;3.47;82.94
62402;BME280;48440;51.224;22.506;2023-01-16T10:05:19;98061.75;;;3.42;83.38
62402;BME280;48440;51.224;22.506;2023-01-16T10:08:07;98067.09;;;3.42;83.23
62402;BME280;48440;51.224;22.506;2023-01-16T10:21:59;98047.72;;;3.52;83.46
62402;BME280;48440;51.224;22.506;2023-01-16T10:25:01;98024.00;;;3.60;82.87
62402;BME280;48440;51.224;22.506;2023-01-16T10:27:56;98018.97;;;3.64;82.95
62402;BME280;48440;51.224;22.506;2023-01-16T10:33:14;98019.53;;;3.66;83.18
62402;BME280;48440;51.224;22.506;2023-01-16T10:35:44;98018.97;;;3.64;83.11
62402;BME280;48440;51.224;22.506;2023-01-16T10:38:40;98025.53;;;3.56;83.21
62402;BME280;48440;51.224;22.506;2023-01-16T10:41:16;98018.31;;;3.57;84.01
62402;BME280;48440;51.224;22.506;2023-01-16T10:44:04;98009.69;;;3.55;83.93
62402;BME280;48440;51.224;22.506;2023-01-16T10:46:50;98012.13;;;3.56;84.11
62402;BME280;48440;51.224;22.506;2023-01-16T10:49:35;98001.06;;;3.53;84.29
62402;BME280;48440;51.224;22.506;2023-01-16T10:52:02;98007.81;;;3.55;84.39
62402;BME280;48440;51.224;22.506;2023-01-16T10:54:28;97997.91;;;3.56;84.71
62402;BME280;48440;51.224;22.506;2023-01-16T10:56:54;97994.66;;;3.54;84.84
62402;BME280;48440;51.224;22.506;2023-01-16T10:59:23;97982.97;;;3.60;85.20
62402;BME280;48440;51.224;22.506;2023-01-16T11:01:50;97982.97;;;3.60;84.63
62402;BME280;48440;51.224;22.506;2023-01-16T11:04:18;97980.84;;;3.62;85.03
62402;BME280;48440;51.224;22.506;2023-01-16T11:06:43;97967.69;;;3.60;84.65
62402;BME280;48440;51.224;22.506;2023-01-16T11:11:38;97964.09;;;3.55;84.51
62402;BME280;48440;51.224;22.506;2023-01-16T11:14:24;97954.41;;;3.54;84.51
62402;BME280;48440;51.224;22.506;2023-01-16T11:17:28;97948.56;;;3.57;84.81
62402;BME280;48440;51.224;22.506;2023-01-16T11:20:19;97946.13;;;3.55;83.70
62402;BME280;48440;51.224;22.506;2023-01-16T11:22:56;97932.13;;;3.53;83.11
62402;BME280;48440;51.224;22.506;2023-01-16T11:25:26;97939.94;;;3.55;83.10
62402;BME280;48440;51.224;22.506;2023-01-16T11:27:55;97934.25;;;3.68;83.15
62402;BME280;48440;51.224;22.506;2023-01-16T11:30:28;97922.78;;;3.72;82.83
62402;BME280;48440;51.224;22.506;2023-01-16T11:32:55;97913.13;;;3.71;82.55
62402;BME280;48440;51.224;22.506;2023-01-16T11:35:30;97920.44;;;3.76;82.94
62402;BME280;48440;51.224;22.506;2023-01-16T11:37:56;97918.72;;;3.70;83.21
62402;BME280;48440;51.224;22.506;2023-01-16T11:40:24;97911.81;;;3.74;83.50
62402;BME280;48440;51.224;22.506;2023-01-16T11:45:40;97907.25;;;3.74;83.75
62402;BME280;48440;51.224;22.506;2023-01-16T11:48:25;97907.84;;;3.77;83.22
62402;BME280;48440;51.224;22.506;2023-01-16T11:50:55;97909.38;;;3.72;83.41
62402;BME280;48440;51.224;22.506;2023-01-16T11:53:22;97900.94;;;3.81;82.82
62402;BME280;48440;51.224;22.506;2023-01-16T11:56:17;97887.91;;;3.89;82.56
62402;BME280;48440;51.224;22.506;2023-01-16T12:04:53;97870.47;;;3.92;81.07
62402;BME280;48440;51.224;22.506;2023-01-16T12:08:15;97865.31;;;3.85;82.39
62402;BME280;48440;51.224;22.506;2023-01-16T12:11:06;97860.50;;;3.87;82.57
62402;BME280;48440;51.224;22.506;2023-01-16T12:13:56;97849.44;;;3.84;83.49
62402;BME280;48440;51.224;22.506;2023-01-16T12:19:40;97837.00;;;3.78;83.21
62402;BME280;48440;51.224;22.506;2023-01-16T12:22:26;97840.84;;;3.82;83.31
62402;BME280;48440;51.224;22.506;2023-01-16T12:26:05;97843.44;;;3.77;83.40
62402;BME280;48440;51.224;22.506;2023-01-16T12:34:00;97835.13;;;3.78;83.63
62402;BME280;48440;51.224;22.506;2023-01-16T12:36:42;97838.88;;;3.77;84.55
62402;BME280;48440;51.224;22.506;2023-01-16T12:39:35;97827.00;;;3.73;84.70
62402;BME280;48440;51.224;22.506;2023-01-16T12:48:17;97807.97;;;3.74;85.45
62402;BME280;48440;51.224;22.506;2023-01-16T12:51:11;97804.16;;;3.70;85.78
62402;BME280;48440;51.224;22.506;2023-01-16T12:59:07;97795.63;;;3.73;86.01
62402;BME280;48440;51.224;22.506;2023-01-16T13:01:41;97784.88;;;3.73;86.41
62402;BME280;48440;51.224;22.506;2023-01-16T13:04:17;97784.41;;;3.77;86.67
62402;BME280;48440;51.224;22.506;2023-01-16T13:06:48;97782.22;;;3.73;86.50
62402;BME280;48440;51.224;22.506;2023-01-16T13:14:59;97779.94;;;3.65;86.83
62402;BME280;48440;51.224;22.506;2023-01-16T13:17:48;97768.41;;;3.65;87.19
62402;BME280;48440;51.224;22.506;2023-01-16T13:20:16;97761.69;;;3.62;87.26
62402;BME280;48440;51.224;22.506;2023-01-16T13:22:54;97763.31;;;3.63;87.07
62402;BME280;48440;51.224;22.506;2023-01-16T13:25:29;97761.94;;;3.61;86.63
62402;BME280;48440;51.224;22.506;2023-01-16T13:28:00;97762.41;;;3.58;86.73
62402;BME280;48440;51.224;22.506;2023-01-16T13:30:27;97762.75;;;3.61;86.80
62402;BME280;48440;51.224;22.506;2023-01-16T13:33:03;97753.88;;;3.61;87.01
62402;BME280;48440;51.224;22.506;2023-01-16T13:43:54;97734.84;;;3.62;87.52
62402;BME280;48440;51.224;22.506;2023-01-16T13:46:40;97737.25;;;3.64;87.89
62402;BME280;48440;51.224;22.506;2023-01-16T13:49:06;97729.22;;;3.64;87.73
62402;BME280;48440;51.224;22.506;2023-01-16T13:51:43;97730.53;;;3.61;87.16
62402;BME280;48440;51.224;22.506;2023-01-16T13:54:17;97721.44;;;3.62;87.31
62402;BME280;48440;51.224;22.506;2023-01-16T13:56:55;97720.88;;;3.60;87.21
62402;BME280;48440;51.224;22.506;2023-01-16T14:05:23;97716.81;;;3.58;87.58
62402;BME280;48440;51.224;22.506;2023-01-16T14:21:18;97711.69;;;3.56;87.57
62402;BME280;48440;51.224;22.506;2023-01-16T14:23:45;97702.34;;;3.59;87.05
62402;BME280;48440;51.224;22.506;2023-01-16T14:28:56;97710.38;;;3.59;87.55
62402;BME280;48440;51.224;22.506;2023-01-16T14:31:39;97701.22;;;3.55;87.24
62402;BME280;48440;51.224;22.506;2023-01-16T14:34:15;97702.84;;;3.56;87.72
62402;BME280;48440;51.224;22.506;2023-01-16T14:36:42;97696.16;;;3.58;87.48
62402;BME280;48440;51.224;22.506;2023-01-16T14:42:05;97689.75;;;3.59;87.14
62402;BME280;48440;51.224;22.506;2023-01-16T14:53:52;97665.53;;;3.54;87.38
62402;BME280;48440;51.224;22.506;2023-01-16T14:56:38;97663.41;;;3.56;87.41
62402;BME280;48440;51.224;22.506;2023-01-16T14:59:33;97658.38;;;3.60;87.47
62402;BME280;48440;51.224;22.506;2023-01-16T15:02:11;97660.78;;;3.61;87.74
62402;BME280;48440;51.224;22.506;2023-01-16T15:07:31;97646.84;;;3.64;87.70
62402;BME280;48440;51.224;22.506;2023-01-16T15:10:07;97648.13;;;3.57;87.93
62402;BME280;48440;51.224;22.506;2023-01-16T15:12:40;97645.44;;;3.57;88.16
62402;BME280;48440;51.224;22.506;2023-01-16T15:17:50;97627.72;;;3.56;88.33
62402;BME280;48440;51.224;22.506;2023-01-16T15:20:37;97637.91;;;3.54;88.13
62402;BME280;48440;51.224;22.506;2023-01-16T15:23:27;97634.41;;;3.53;88.48
62402;BME280;48440;51.224;22.506;2023-01-16T15:31:08;97627.72;;;3.56;88.50
62402;BME280;48440;51.224;22.506;2023-01-16T15:33:35;97632.28;;;3.55;88.09
62402;BME280;48440;51.224;22.506;2023-01-16T15:36:21;97624.47;;;3.54;88.31
62402;BME280;48440;51.224;22.506;2023-01-16T15:41:32;97613.50;;;3.55;87.62
62402;BME280;48440;51.224;22.506;2023-01-16T15:44:21;97611.88;;;3.54;87.78
62402;BME280;48440;51.224;22.506;2023-01-16T15:52:42;97604.84;;;3.48;87.45
62402;BME280;48440;51.224;22.506;2023-01-16T15:55:10;97600.03;;;3.50;87.93
62402;BME280;48440;51.224;22.506;2023-01-16T15:57:36;97597.09;;;3.52;87.83
62402;BME280;48440;51.224;22.506;2023-01-16T16:00:03;97592.78;;;3.51;87.97
62402;BME280;48440;51.224;22.506;2023-01-16T16:02:30;97583.69;;;3.52;87.79
62402;BME280;48440;51.224;22.506;2023-01-16T16:04:59;97589.63;;;3.54;87.53
62402;BME280;48440;51.224;22.506;2023-01-16T16:07:26;97583.19;;;3.55;87.61
62402;BME280;48440;51.224;22.506;2023-01-16T16:09:54;97574.66;;;3.58;87.76